sensor_id;sensor_type;location;lat;lon;timestamp;P1;durP1;ratioP1;P2;durP2;ratioP2
11024;SDS011;22890;51.820;8.682;2023-10-08T00:00:05;13.50;;;4.83;;
11024;SDS011;22890;51.820;8.682;2023-10-08T00:02:52;12.80;;;5.37;;
11024;SDS011;22890;51.820;8.682;2023-10-08T00:05:19;8.30;;;4.90;;
11024;SDS011;22890;51.820;8.682;2023-10-08T00:07:48;12.57;;;5.33;;
11024;SDS011;22890;51.820;8.682;2023-10-08T00:10:17;11.80;;;5.10;;
11024;SDS011;22890;51.820;8.682;2023-10-08T00:12:44;13.30;;;5.57;;
11024;SDS011;22890;51.820;8.682;2023-10-08T00:15:14;9.23;;;5.37;;
11024;SDS011;22890;51.820;8.682;2023-10-08T00:17:41;14.43;;;5.47;;
11024;SDS011;22890;51.820;8.682;2023-10-08T00:20:12;10.33;;;5.43;;
11024;SDS011;22890;51.820;8.682;2023-10-08T00:22:51;11.40;;;5.33;;
11024;SDS011;22890;51.820;8.682;2023-10-08T00:25:21;7.43;;;4.70;;
11024;SDS011;22890;51.820;8.682;2023-10-08T00:27:48;9.30;;;4.70;;
11024;SDS011;22890;51.820;8.682;2023-10-08T00:30:17;11.73;;;5.63;;
11024;SDS011;22890;51.820;8.682;2023-10-08T00:32:44;14.33;;;5.40;;
11024;SDS011;22890;51.820;8.682;2023-10-08T00:35:12;9.87;;;5.53;;
11024;SDS011;22890;51.820;8.682;2023-10-08T00:37:40;8.23;;;5.03;;
11024;SDS011;22890;51.820;8.682;2023-10-08T00:40:07;11.67;;;5.40;;
11024;SDS011;22890;51.820;8.682;2023-10-08T00:42:38;12.30;;;5.17;;
11024;SDS011;22890;51.820;8.682;2023-10-08T00:45:12;12.30;;;6.00;;
11024;SDS011;22890;51.820;8.682;2023-10-08T00:47:42;9.67;;;5.03;;
11024;SDS011;22890;51.820;8.682;2023-10-08T00:50:10;10.97;;;5.30;;
11024;SDS011;22890;51.820;8.682;2023-10-08T00:52:47;12.83;;;5.27;;
11024;SDS011;22890;51.820;8.682;2023-10-08T00:55:35;13.87;;;6.17;;
11024;SDS011;22890;51.820;8.682;2023-10-08T00:58:03;11.67;;;5.73;;
11024;SDS011;22890;51.820;8.682;2023-10-08T01:00:36;8.80;;;4.97;;
11024;SDS011;22890;51.820;8.682;2023-10-08T01:03:07;13.50;;;5.90;;
11024;SDS011;22890;51.820;8.682;2023-10-08T01:05:45;10.07;;;5.20;;
11024;SDS011;22890;51.820;8.682;2023-10-08T01:08:15;15.00;;;5.60;;
11024;SDS011;22890;51.820;8.682;2023-10-08T01:14:12;15.97;;;5.77;;
11024;SDS011;22890;51.820;8.682;2023-10-08T01:16:41;11.80;;;5.60;;
11024;SDS011;22890;51.820;8.682;2023-10-08T01:19:19;9.43;;;4.97;;
11024;SDS011;22890;51.820;8.682;2023-10-08T01:21:46;12.33;;;6.97;;
11024;SDS011;22890;51.820;8.682;2023-10-08T01:24:13;11.27;;;6.30;;
11024;SDS011;22890;51.820;8.682;2023-10-08T01:26:43;14.60;;;6.37;;
11024;SDS011;22890;51.820;8.682;2023-10-08T01:29:12;14.57;;;5.83;;
11024;SDS011;22890;51.820;8.682;2023-10-08T01:31:48;13.67;;;5.70;;
11024;SDS011;22890;51.820;8.682;2023-10-08T01:34:15;15.07;;;6.67;;
11024;SDS011;22890;51.820;8.682;2023-10-08T01:36:43;11.57;;;6.07;;
11024;SDS011;22890;51.820;8.682;2023-10-08T01:39:11;11.97;;;6.30;;
11024;SDS011;22890;51.820;8.682;2023-10-08T01:41:43;17.17;;;6.00;;
11024;SDS011;22890;51.820;8.682;2023-10-08T01:44:11;13.13;;;6.80;;
11024;SDS011;22890;51.820;8.682;2023-10-08T01:46:38;14.90;;;6.77;;
11024;SDS011;22890;51.820;8.682;2023-10-08T01:49:07;21.07;;;7.20;;
11024;SDS011;22890;51.820;8.682;2023-10-08T01:51:41;17.60;;;5.90;;
11024;SDS011;22890;51.820;8.682;2023-10-08T01:54:15;16.67;;;6.27;;
11024;SDS011;22890;51.820;8.682;2023-10-08T01:56:47;15.10;;;6.23;;
11024;SDS011;22890;51.820;8.682;2023-10-08T01:59:16;15.50;;;7.00;;
11024;SDS011;22890;51.820;8.682;2023-10-08T02:01:43;16.30;;;6.60;;
11024;SDS011;22890;51.820;8.682;2023-10-08T02:04:12;20.33;;;7.20;;
11024;SDS011;22890;51.820;8.682;2023-10-08T02:06:39;16.43;;;6.80;;
11024;SDS011;22890;51.820;8.682;2023-10-08T02:09:06;6.77;;;4.27;;
11024;SDS011;22890;51.820;8.682;2023-10-08T02:14:18;3.97;;;2.90;;
11024;SDS011;22890;51.820;8.682;2023-10-08T02:16:45;7.40;;;3.20;;
11024;SDS011;22890;51.820;8.682;2023-10-08T02:19:13;5.70;;;2.53;;
11024;SDS011;22890;51.820;8.682;2023-10-08T02:21:44;1.63;;;1.40;;
11024;SDS011;22890;51.820;8.682;2023-10-08T02:24:12;1.10;;;1.00;;
11024;SDS011;22890;51.820;8.682;2023-10-08T02:26:39;0.57;;;0.57;;
11024;SDS011;22890;51.820;8.682;2023-10-08T02:29:08;1.23;;;0.40;;
11024;SDS011;22890;51.820;8.682;2023-10-08T02:31:39;2.60;;;0.50;;
11024;SDS011;22890;51.820;8.682;2023-10-08T02:34:06;0.20;;;0.20;;
11024;SDS011;22890;51.820;8.682;2023-10-08T02:36:37;0.10;;;0.10;;
11024;SDS011;22890;51.820;8.682;2023-10-08T02:39:04;0.30;;;0.30;;
11024;SDS011;22890;51.820;8.682;2023-10-08T02:41:32;0.30;;;0.30;;
11024;SDS011;22890;51.820;8.682;2023-10-08T02:43:59;0.20;;;0.20;;
11024;SDS011;22890;51.820;8.682;2023-10-08T02:46:26;0.30;;;0.30;;
11024;SDS011;22890;51.820;8.682;2023-10-08T02:48:56;0.20;;;0.20;;
11024;SDS011;22890;51.820;8.682;2023-10-08T02:51:24;0.30;;;0.30;;
11024;SDS011;22890;51.820;8.682;2023-10-08T02:53:51;0.20;;;0.20;;
11024;SDS011;22890;51.820;8.682;2023-10-08T02:56:18;0.20;;;0.20;;
11024;SDS011;22890;51.820;8.682;2023-10-08T02:58:48;0.20;;;0.20;;
11024;SDS011;22890;51.820;8.682;2023-10-08T03:01:15;0.20;;;0.20;;
11024;SDS011;22890;51.820;8.682;2023-10-08T03:03:42;0.20;;;0.20;;
11024;SDS011;22890;51.820;8.682;2023-10-08T03:06:09;1.03;;;0.20;;
11024;SDS011;22890;51.820;8.682;2023-10-08T03:08:38;0.30;;;0.30;;
11024;SDS011;22890;51.820;8.682;2023-10-08T03:11:10;0.20;;;0.20;;
11024;SDS011;22890;51.820;8.682;2023-10-08T03:13:46;0.20;;;0.20;;
11024;SDS011;22890;51.820;8.682;2023-10-08T03:16:13;0.20;;;0.20;;
11024;SDS011;22890;51.820;8.682;2023-10-08T03:18:41;1.17;;;0.30;;
11024;SDS011;22890;51.820;8.682;2023-10-08T03:21:11;0.20;;;0.20;;
11024;SDS011;22890;51.820;8.682;2023-10-08T03:23:51;0.20;;;0.20;;
11024;SDS011;22890;51.820;8.682;2023-10-08T03:26:22;3.20;;;0.30;;
11024;SDS011;22890;51.820;8.682;2023-10-08T03:29:02;0.30;;;0.30;;
11024;SDS011;22890;51.820;8.682;2023-10-08T03:31:43;0.40;;;0.40;;
11024;SDS011;22890;51.820;8.682;2023-10-08T03:34:16;0.50;;;0.40;;
11024;SDS011;22890;51.820;8.682;2023-10-08T03:36:54;0.50;;;0.50;;
11024;SDS011;22890;51.820;8.682;2023-10-08T03:39:31;0.30;;;0.30;;
11024;SDS011;22890;51.820;8.682;2023-10-08T03:42:21;0.40;;;0.40;;
11024;SDS011;22890;51.820;8.682;2023-10-08T03:44:52;0.40;;;0.40;;
11024;SDS011;22890;51.820;8.682;2023-10-08T03:47:21;0.53;;;0.40;;
11024;SDS011;22890;51.820;8.682;2023-10-08T03:49:53;0.30;;;0.30;;
11024;SDS011;22890;51.820;8.682;2023-10-08T03:52:20;0.30;;;0.30;;
11024;SDS011;22890;51.820;8.682;2023-10-08T03:54:52;0.30;;;0.30;;
11024;SDS011;22890;51.820;8.682;2023-10-08T03:57:38;0.30;;;0.30;;
11024;SDS011;22890;51.820;8.682;2023-10-08T04:00:10;1.23;;;0.37;;
11024;SDS011;22890;51.820;8.682;2023-10-08T04:02:40;0.30;;;0.30;;
11024;SDS011;22890;51.820;8.682;2023-10-08T04:05:13;0.30;;;0.30;;
11024;SDS011;22890;51.820;8.682;2023-10-08T04:07:47;0.27;;;0.27;;
11024;SDS011;22890;51.820;8.682;2023-10-08T04:10:34;0.30;;;0.30;;
11024;SDS011;22890;51.820;8.682;2023-10-08T04:13:07;0.20;;;0.20;;
11024;SDS011;22890;51.820;8.682;2023-10-08T04:15:36;1.07;;;0.30;;
11024;SDS011;22890;51.820;8.682;2023-10-08T04:18:11;1.67;;;0.30;;
11024;SDS011;22890;51.820;8.682;2023-10-08T04:20:40;0.40;;;0.23;;
11024;SDS011;22890;51.820;8.682;2023-10-08T04:23:26;0.60;;;0.60;;
11024;SDS011;22890;51.820;8.682;2023-10-08T04:25:55;0.30;;;0.30;;
11024;SDS011;22890;51.820;8.682;2023-10-08T04:28:23;0.73;;;0.50;;
11024;SDS011;22890;51.820;8.682;2023-10-08T04:30:54;0.47;;;0.47;;
11024;SDS011;22890;51.820;8.682;2023-10-08T04:33:27;0.57;;;0.40;;
11024;SDS011;22890;51.820;8.682;2023-10-08T04:36:00;0.30;;;0.30;;
11024;SDS011;22890;51.820;8.682;2023-10-08T04:38:28;2.73;;;0.87;;
11024;SDS011;22890;51.820;8.682;2023-10-08T04:40:56;0.83;;;0.40;;
11024;SDS011;22890;51.820;8.682;2023-10-08T04:43:28;1.23;;;0.50;;
11024;SDS011;22890;51.820;8.682;2023-10-08T04:45:58;2.40;;;0.47;;
11024;SDS011;22890;51.820;8.682;2023-10-08T04:48:34;2.10;;;0.27;;
11024;SDS011;22890;51.820;8.682;2023-10-08T04:51:03;0.83;;;0.47;;
11024;SDS011;22890;51.820;8.682;2023-10-08T04:53:34;1.47;;;0.63;;
11024;SDS011;22890;51.820;8.682;2023-10-08T04:56:08;1.23;;;0.40;;
11024;SDS011;22890;51.820;8.682;2023-10-08T04:58:45;0.93;;;0.60;;
11024;SDS011;22890;51.820;8.682;2023-10-08T05:01:16;1.37;;;0.40;;
11024;SDS011;22890;51.820;8.682;2023-10-08T05:03:48;1.83;;;0.50;;
11024;SDS011;22890;51.820;8.682;2023-10-08T05:06:25;0.63;;;0.50;;
11024;SDS011;22890;51.820;8.682;2023-10-08T05:09:03;1.67;;;0.40;;
11024;SDS011;22890;51.820;8.682;2023-10-08T05:11:37;2.90;;;0.90;;
11024;SDS011;22890;51.820;8.682;2023-10-08T05:14:22;1.77;;;0.50;;
11024;SDS011;22890;51.820;8.682;2023-10-08T05:17:00;2.60;;;1.13;;
11024;SDS011;22890;51.820;8.682;2023-10-08T05:19:36;0.50;;;0.50;;
11024;SDS011;22890;51.820;8.682;2023-10-08T05:22:10;1.63;;;0.60;;
11024;SDS011;22890;51.820;8.682;2023-10-08T05:24:45;3.57;;;0.80;;
11024;SDS011;22890;51.820;8.682;2023-10-08T05:27:37;2.93;;;0.50;;
11024;SDS011;22890;51.820;8.682;2023-10-08T05:32:43;1.40;;;0.60;;
11024;SDS011;22890;51.820;8.682;2023-10-08T05:35:29;1.33;;;0.40;;
11024;SDS011;22890;51.820;8.682;2023-10-08T05:38:18;3.70;;;0.80;;
11024;SDS011;22890;51.820;8.682;2023-10-08T05:41:01;2.83;;;0.70;;
11024;SDS011;22890;51.820;8.682;2023-10-08T05:43:29;2.03;;;0.73;;
11024;SDS011;22890;51.820;8.682;2023-10-08T05:46:08;1.60;;;0.60;;
11024;SDS011;22890;51.820;8.682;2023-10-08T05:49:05;1.77;;;0.70;;
11024;SDS011;22890;51.820;8.682;2023-10-08T05:54:15;2.53;;;0.70;;
11024;SDS011;22890;51.820;8.682;2023-10-08T05:56:58;3.67;;;0.70;;
11024;SDS011;22890;51.820;8.682;2023-10-08T05:59:33;2.37;;;0.57;;
11024;SDS011;22890;51.820;8.682;2023-10-08T06:02:40;2.77;;;0.70;;
11024;SDS011;22890;51.820;8.682;2023-10-08T06:05:10;1.27;;;0.67;;
11024;SDS011;22890;51.820;8.682;2023-10-08T06:10:27;7.40;;;1.03;;
11024;SDS011;22890;51.820;8.682;2023-10-08T06:18:15;3.13;;;0.83;;
11024;SDS011;22890;51.820;8.682;2023-10-08T06:20:45;3.43;;;1.13;;
11024;SDS011;22890;51.820;8.682;2023-10-08T06:23:13;1.63;;;0.80;;
11024;SDS011;22890;51.820;8.682;2023-10-08T06:25:44;1.97;;;0.80;;
11024;SDS011;22890;51.820;8.682;2023-10-08T06:28:13;2.90;;;1.00;;
11024;SDS011;22890;51.820;8.682;2023-10-08T06:30:41;3.13;;;1.10;;
11024;SDS011;22890;51.820;8.682;2023-10-08T06:33:12;4.83;;;0.90;;
11024;SDS011;22890;51.820;8.682;2023-10-08T06:35:40;5.80;;;0.80;;
11024;SDS011;22890;51.820;8.682;2023-10-08T06:38:28;5.23;;;1.20;;
11024;SDS011;22890;51.820;8.682;2023-10-08T06:41:00;4.10;;;1.03;;
11024;SDS011;22890;51.820;8.682;2023-10-08T06:44:00;4.53;;;1.10;;
11024;SDS011;22890;51.820;8.682;2023-10-08T06:46:41;7.03;;;1.60;;
11024;SDS011;22890;51.820;8.682;2023-10-08T06:49:09;3.23;;;0.80;;
11024;SDS011;22890;51.820;8.682;2023-10-08T06:51:41;3.37;;;0.97;;
11024;SDS011;22890;51.820;8.682;2023-10-08T06:54:10;3.10;;;0.80;;
11024;SDS011;22890;51.820;8.682;2023-10-08T06:56:40;3.37;;;0.90;;
11024;SDS011;22890;51.820;8.682;2023-10-08T06:59:13;2.70;;;0.80;;
11024;SDS011;22890;51.820;8.682;2023-10-08T07:01:40;3.87;;;1.00;;
11024;SDS011;22890;51.820;8.682;2023-10-08T07:04:12;5.30;;;1.33;;
11024;SDS011;22890;51.820;8.682;2023-10-08T07:06:40;5.20;;;1.03;;
11024;SDS011;22890;51.820;8.682;2023-10-08T07:09:07;3.90;;;1.00;;
11024;SDS011;22890;51.820;8.682;2023-10-08T07:11:51;4.00;;;1.00;;
11024;SDS011;22890;51.820;8.682;2023-10-08T07:14:25;3.40;;;0.80;;
11024;SDS011;22890;51.820;8.682;2023-10-08T07:16:54;4.13;;;0.80;;
11024;SDS011;22890;51.820;8.682;2023-10-08T07:19:29;4.83;;;1.20;;
11024;SDS011;22890;51.820;8.682;2023-10-08T07:22:04;5.43;;;1.03;;
11024;SDS011;22890;51.820;8.682;2023-10-08T07:24:45;2.93;;;1.17;;
11024;SDS011;22890;51.820;8.682;2023-10-08T07:27:17;3.87;;;0.90;;
11024;SDS011;22890;51.820;8.682;2023-10-08T07:29:48;7.57;;;1.10;;
11024;SDS011;22890;51.820;8.682;2023-10-08T07:32:15;8.33;;;1.77;;
11024;SDS011;22890;51.820;8.682;2023-10-08T07:34:45;2.23;;;1.17;;
11024;SDS011;22890;51.820;8.682;2023-10-08T07:37:12;3.63;;;1.20;;
11024;SDS011;22890;51.820;8.682;2023-10-08T07:39:40;2.60;;;1.10;;
11024;SDS011;22890;51.820;8.682;2023-10-08T07:42:14;3.93;;;1.00;;
11024;SDS011;22890;51.820;8.682;2023-10-08T07:44:41;2.33;;;1.00;;
11024;SDS011;22890;51.820;8.682;2023-10-08T07:47:08;2.07;;;1.10;;
11024;SDS011;22890;51.820;8.682;2023-10-08T07:49:40;7.17;;;0.97;;
11024;SDS011;22890;51.820;8.682;2023-10-08T07:52:09;3.10;;;1.03;;
11024;SDS011;22890;51.820;8.682;2023-10-08T07:54:41;2.93;;;1.00;;
11024;SDS011;22890;51.820;8.682;2023-10-08T07:57:09;3.23;;;1.33;;
11024;SDS011;22890;51.820;8.682;2023-10-08T07:59:38;2.67;;;0.90;;
11024;SDS011;22890;51.820;8.682;2023-10-08T08:02:21;2.93;;;1.17;;
11024;SDS011;22890;51.820;8.682;2023-10-08T08:04:50;3.70;;;1.13;;
11024;SDS011;22890;51.820;8.682;2023-10-08T08:07:19;3.27;;;1.07;;
11024;SDS011;22890;51.820;8.682;2023-10-08T08:09:47;3.87;;;1.20;;
11024;SDS011;22890;51.820;8.682;2023-10-08T08:12:37;4.13;;;1.37;;
11024;SDS011;22890;51.820;8.682;2023-10-08T08:15:04;3.70;;;0.80;;
11024;SDS011;22890;51.820;8.682;2023-10-08T08:17:41;4.97;;;1.17;;
11024;SDS011;22890;51.820;8.682;2023-10-08T08:20:09;4.00;;;0.90;;
11024;SDS011;22890;51.820;8.682;2023-10-08T08:22:44;2.53;;;1.40;;
11024;SDS011;22890;51.820;8.682;2023-10-08T08:25:20;3.43;;;1.10;;
11024;SDS011;22890;51.820;8.682;2023-10-08T08:28:00;3.47;;;1.23;;
11024;SDS011;22890;51.820;8.682;2023-10-08T08:30:26;1.70;;;0.90;;
11024;SDS011;22890;51.820;8.682;2023-10-08T08:32:54;2.43;;;0.90;;
11024;SDS011;22890;51.820;8.682;2023-10-08T08:35:23;3.33;;;1.00;;
11024;SDS011;22890;51.820;8.682;2023-10-08T08:37:50;2.63;;;1.10;;
11024;SDS011;22890;51.820;8.682;2023-10-08T08:40:18;2.57;;;1.00;;
11024;SDS011;22890;51.820;8.682;2023-10-08T08:42:46;5.53;;;1.33;;
11024;SDS011;22890;51.820;8.682;2023-10-08T08:45:21;2.57;;;0.97;;
11024;SDS011;22890;51.820;8.682;2023-10-08T08:47:51;5.27;;;1.10;;
11024;SDS011;22890;51.820;8.682;2023-10-08T08:50:18;3.47;;;1.20;;
11024;SDS011;22890;51.820;8.682;2023-10-08T08:52:47;2.53;;;0.70;;
11024;SDS011;22890;51.820;8.682;2023-10-08T08:55:14;4.77;;;1.00;;
11024;SDS011;22890;51.820;8.682;2023-10-08T08:57:44;4.77;;;1.00;;
11024;SDS011;22890;51.820;8.682;2023-10-08T09:00:14;1.20;;;1.03;;
11024;SDS011;22890;51.820;8.682;2023-10-08T09:02:47;1.93;;;0.90;;
11024;SDS011;22890;51.820;8.682;2023-10-08T09:05:16;2.63;;;0.73;;
11024;SDS011;22890;51.820;8.682;2023-10-08T09:07:59;3.50;;;1.10;;
11024;SDS011;22890;51.820;8.682;2023-10-08T09:10:30;3.67;;;1.33;;
11024;SDS011;22890;51.820;8.682;2023-10-08T09:13:03;1.47;;;0.90;;
11024;SDS011;22890;51.820;8.682;2023-10-08T09:15:31;6.27;;;1.37;;
11024;SDS011;22890;51.820;8.682;2023-10-08T09:17:58;2.97;;;1.03;;
11024;SDS011;22890;51.820;8.682;2023-10-08T09:20:34;2.60;;;1.40;;
11024;SDS011;22890;51.820;8.682;2023-10-08T09:25:40;4.47;;;1.40;;
11024;SDS011;22890;51.820;8.682;2023-10-08T09:28:08;3.13;;;1.33;;
11024;SDS011;22890;51.820;8.682;2023-10-08T09:30:39;5.90;;;1.77;;
11024;SDS011;22890;51.820;8.682;2023-10-08T09:33:10;4.07;;;0.97;;
11024;SDS011;22890;51.820;8.682;2023-10-08T09:35:38;2.37;;;1.30;;
11024;SDS011;22890;51.820;8.682;2023-10-08T09:38:06;3.50;;;1.17;;
11024;SDS011;22890;51.820;8.682;2023-10-08T09:40:38;1.50;;;0.80;;
11024;SDS011;22890;51.820;8.682;2023-10-08T09:43:10;1.63;;;0.90;;
11024;SDS011;22890;51.820;8.682;2023-10-08T09:45:41;5.83;;;1.20;;
11024;SDS011;22890;51.820;8.682;2023-10-08T09:48:10;7.40;;;1.53;;
11024;SDS011;22890;51.820;8.682;2023-10-08T09:50:40;4.83;;;1.00;;
11024;SDS011;22890;51.820;8.682;2023-10-08T09:53:08;3.70;;;1.10;;
11024;SDS011;22890;51.820;8.682;2023-10-08T09:55:51;1.93;;;1.00;;
11024;SDS011;22890;51.820;8.682;2023-10-08T09:58:21;2.10;;;1.13;;
11024;SDS011;22890;51.820;8.682;2023-10-08T10:00:51;3.80;;;1.13;;
11024;SDS011;22890;51.820;8.682;2023-10-08T10:03:20;2.57;;;0.90;;
11024;SDS011;22890;51.820;8.682;2023-10-08T10:05:50;4.00;;;0.80;;
11024;SDS011;22890;51.820;8.682;2023-10-08T10:08:17;4.67;;;1.33;;
11024;SDS011;22890;51.820;8.682;2023-10-08T10:10:46;3.23;;;1.50;;
11024;SDS011;22890;51.820;8.682;2023-10-08T10:13:16;3.07;;;1.00;;
11024;SDS011;22890;51.820;8.682;2023-10-08T10:15:43;7.03;;;1.27;;
11024;SDS011;22890;51.820;8.682;2023-10-08T10:18:26;2.43;;;0.83;;
11024;SDS011;22890;51.820;8.682;2023-10-08T10:20:59;2.70;;;0.87;;
11024;SDS011;22890;51.820;8.682;2023-10-08T10:23:46;3.13;;;1.20;;
11024;SDS011;22890;51.820;8.682;2023-10-08T10:26:24;2.93;;;0.97;;
11024;SDS011;22890;51.820;8.682;2023-10-08T10:31:46;3.30;;;0.97;;
11024;SDS011;22890;51.820;8.682;2023-10-08T10:34:21;4.70;;;1.30;;
11024;SDS011;22890;51.820;8.682;2023-10-08T10:36:55;3.90;;;0.90;;
11024;SDS011;22890;51.820;8.682;2023-10-08T10:39:25;5.23;;;1.17;;
11024;SDS011;22890;51.820;8.682;2023-10-08T10:41:54;3.90;;;1.53;;
11024;SDS011;22890;51.820;8.682;2023-10-08T10:44:28;5.10;;;1.10;;
11024;SDS011;22890;51.820;8.682;2023-10-08T10:46:59;2.47;;;0.97;;
11024;SDS011;22890;51.820;8.682;2023-10-08T10:49:50;4.57;;;1.10;;
11024;SDS011;22890;51.820;8.682;2023-10-08T10:52:20;2.67;;;1.10;;
11024;SDS011;22890;51.820;8.682;2023-10-08T10:55:11;4.63;;;0.87;;
11024;SDS011;22890;51.820;8.682;2023-10-08T10:57:42;3.87;;;1.10;;
11024;SDS011;22890;51.820;8.682;2023-10-08T11:00:10;3.20;;;0.93;;
11024;SDS011;22890;51.820;8.682;2023-10-08T11:02:56;3.67;;;0.90;;
11024;SDS011;22890;51.820;8.682;2023-10-08T11:05:29;4.70;;;1.30;;
11024;SDS011;22890;51.820;8.682;2023-10-08T11:07:58;3.70;;;1.00;;
11024;SDS011;22890;51.820;8.682;2023-10-08T11:10:33;3.03;;;0.80;;
11024;SDS011;22890;51.820;8.682;2023-10-08T11:13:05;1.30;;;0.97;;
11024;SDS011;22890;51.820;8.682;2023-10-08T11:15:41;2.10;;;1.07;;
11024;SDS011;22890;51.820;8.682;2023-10-08T11:18:09;2.67;;;1.03;;
11024;SDS011;22890;51.820;8.682;2023-10-08T11:20:41;4.20;;;1.00;;
11024;SDS011;22890;51.820;8.682;2023-10-08T11:23:11;5.20;;;1.10;;
11024;SDS011;22890;51.820;8.682;2023-10-08T11:26:00;5.50;;;1.20;;
11024;SDS011;22890;51.820;8.682;2023-10-08T11:28:32;3.33;;;0.77;;
11024;SDS011;22890;51.820;8.682;2023-10-08T11:31:01;6.33;;;1.30;;
11024;SDS011;22890;51.820;8.682;2023-10-08T11:33:42;2.80;;;1.00;;
11024;SDS011;22890;51.820;8.682;2023-10-08T11:36:23;3.60;;;0.73;;
11024;SDS011;22890;51.820;8.682;2023-10-08T11:39:08;3.30;;;0.70;;
11024;SDS011;22890;51.820;8.682;2023-10-08T11:41:37;3.53;;;1.10;;
11024;SDS011;22890;51.820;8.682;2023-10-08T11:44:17;2.57;;;0.83;;
11024;SDS011;22890;51.820;8.682;2023-10-08T11:46:46;2.13;;;1.10;;
11024;SDS011;22890;51.820;8.682;2023-10-08T11:49:18;4.27;;;1.10;;
11024;SDS011;22890;51.820;8.682;2023-10-08T11:51:45;1.60;;;1.00;;
11024;SDS011;22890;51.820;8.682;2023-10-08T11:54:12;3.63;;;1.20;;
11024;SDS011;22890;51.820;8.682;2023-10-08T11:56:41;2.73;;;1.07;;
11024;SDS011;22890;51.820;8.682;2023-10-08T11:59:08;3.90;;;1.10;;
11024;SDS011;22890;51.820;8.682;2023-10-08T12:01:35;4.47;;;1.00;;
11024;SDS011;22890;51.820;8.682;2023-10-08T12:04:04;4.50;;;1.00;;
11024;SDS011;22890;51.820;8.682;2023-10-08T12:06:31;3.73;;;1.30;;
11024;SDS011;22890;51.820;8.682;2023-10-08T12:08:59;2.53;;;1.00;;
11024;SDS011;22890;51.820;8.682;2023-10-08T12:11:36;3.93;;;1.23;;
11024;SDS011;22890;51.820;8.682;2023-10-08T12:14:04;5.57;;;1.40;;
11024;SDS011;22890;51.820;8.682;2023-10-08T12:16:31;4.00;;;0.97;;
11024;SDS011;22890;51.820;8.682;2023-10-08T12:19:02;2.67;;;1.17;;
11024;SDS011;22890;51.820;8.682;2023-10-08T12:21:41;3.60;;;0.80;;
11024;SDS011;22890;51.820;8.682;2023-10-08T12:24:12;3.07;;;1.40;;
11024;SDS011;22890;51.820;8.682;2023-10-08T12:26:40;1.37;;;0.70;;
11024;SDS011;22890;51.820;8.682;2023-10-08T12:29:13;2.83;;;1.03;;
11024;SDS011;22890;51.820;8.682;2023-10-08T12:31:40;3.67;;;1.00;;
11024;SDS011;22890;51.820;8.682;2023-10-08T12:34:07;2.57;;;1.23;;
11024;SDS011;22890;51.820;8.682;2023-10-08T12:36:38;2.10;;;0.80;;
11024;SDS011;22890;51.820;8.682;2023-10-08T12:39:05;4.63;;;1.30;;
11024;SDS011;22890;51.820;8.682;2023-10-08T12:41:41;4.53;;;1.27;;
11024;SDS011;22890;51.820;8.682;2023-10-08T12:44:10;3.77;;;1.23;;
11024;SDS011;22890;51.820;8.682;2023-10-08T12:46:38;3.03;;;1.13;;
11024;SDS011;22890;51.820;8.682;2023-10-08T12:49:05;2.47;;;0.90;;
11024;SDS011;22890;51.820;8.682;2023-10-08T12:51:33;2.70;;;0.80;;
11024;SDS011;22890;51.820;8.682;2023-10-08T12:54:01;9.87;;;1.77;;
11024;SDS011;22890;51.820;8.682;2023-10-08T12:56:38;4.77;;;0.93;;
11024;SDS011;22890;51.820;8.682;2023-10-08T12:59:11;1.70;;;0.90;;
11024;SDS011;22890;51.820;8.682;2023-10-08T13:01:47;4.07;;;0.83;;
11024;SDS011;22890;51.820;8.682;2023-10-08T13:04:18;3.33;;;0.93;;
11024;SDS011;22890;51.820;8.682;2023-10-08T13:06:56;5.87;;;1.10;;
11024;SDS011;22890;51.820;8.682;2023-10-08T13:09:27;1.97;;;1.13;;
11024;SDS011;22890;51.820;8.682;2023-10-08T13:11:57;3.03;;;1.03;;
11024;SDS011;22890;51.820;8.682;2023-10-08T13:14:26;2.97;;;1.10;;
11024;SDS011;22890;51.820;8.682;2023-10-08T13:16:53;3.57;;;1.00;;
11024;SDS011;22890;51.820;8.682;2023-10-08T13:19:20;6.37;;;1.07;;
11024;SDS011;22890;51.820;8.682;2023-10-08T13:21:52;4.50;;;1.10;;
11024;SDS011;22890;51.820;8.682;2023-10-08T13:24:19;3.00;;;0.87;;
11024;SDS011;22890;51.820;8.682;2023-10-08T13:26:50;8.07;;;1.00;;
11024;SDS011;22890;51.820;8.682;2023-10-08T13:29:18;5.67;;;1.07;;
11024;SDS011;22890;51.820;8.682;2023-10-08T13:31:45;6.77;;;1.37;;
11024;SDS011;22890;51.820;8.682;2023-10-08T13:34:13;6.80;;;1.30;;
11024;SDS011;22890;51.820;8.682;2023-10-08T13:36:42;3.63;;;1.33;;
11024;SDS011;22890;51.820;8.682;2023-10-08T13:39:13;4.40;;;1.17;;
11024;SDS011;22890;51.820;8.682;2023-10-08T13:41:45;3.87;;;1.17;;
11024;SDS011;22890;51.820;8.682;2023-10-08T13:44:15;3.50;;;0.90;;
11024;SDS011;22890;51.820;8.682;2023-10-08T13:46:44;2.30;;;1.30;;
11024;SDS011;22890;51.820;8.682;2023-10-08T13:49:15;2.30;;;1.13;;
11024;SDS011;22890;51.820;8.682;2023-10-08T13:51:42;2.13;;;0.80;;
11024;SDS011;22890;51.820;8.682;2023-10-08T13:54:11;3.07;;;0.90;;
11024;SDS011;22890;51.820;8.682;2023-10-08T13:56:38;3.30;;;0.97;;
11024;SDS011;22890;51.820;8.682;2023-10-08T13:59:08;3.37;;;1.00;;
11024;SDS011;22890;51.820;8.682;2023-10-08T14:01:40;2.80;;;1.00;;
11024;SDS011;22890;51.820;8.682;2023-10-08T14:04:12;4.33;;;1.87;;
11024;SDS011;22890;51.820;8.682;2023-10-08T14:06:44;3.20;;;0.97;;
11024;SDS011;22890;51.820;8.682;2023-10-08T14:09:18;2.83;;;1.23;;
11024;SDS011;22890;51.820;8.682;2023-10-08T14:11:57;2.77;;;0.90;;
11024;SDS011;22890;51.820;8.682;2023-10-08T14:14:25;3.97;;;0.77;;
11024;SDS011;22890;51.820;8.682;2023-10-08T14:16:56;0.90;;;0.73;;
11024;SDS011;22890;51.820;8.682;2023-10-08T14:19:29;1.73;;;0.70;;
11024;SDS011;22890;51.820;8.682;2023-10-08T14:22:09;6.37;;;1.50;;
11024;SDS011;22890;51.820;8.682;2023-10-08T14:24:41;3.00;;;0.90;;
11024;SDS011;22890;51.820;8.682;2023-10-08T14:27:10;3.43;;;0.90;;
11024;SDS011;22890;51.820;8.682;2023-10-08T14:29:41;4.40;;;1.40;;
11024;SDS011;22890;51.820;8.682;2023-10-08T14:32:11;4.73;;;1.30;;
11024;SDS011;22890;51.820;8.682;2023-10-08T14:34:37;6.47;;;1.17;;
11024;SDS011;22890;51.820;8.682;2023-10-08T14:37:21;3.03;;;1.03;;
11024;SDS011;22890;51.820;8.682;2023-10-08T14:40:06;2.73;;;1.13;;
11024;SDS011;22890;51.820;8.682;2023-10-08T14:42:52;1.90;;;0.87;;
11024;SDS011;22890;51.820;8.682;2023-10-08T14:45:29;4.67;;;1.20;;
11024;SDS011;22890;51.820;8.682;2023-10-08T14:47:58;5.77;;;1.07;;
11024;SDS011;22890;51.820;8.682;2023-10-08T14:50:26;4.50;;;1.33;;
11024;SDS011;22890;51.820;8.682;2023-10-08T14:52:54;4.20;;;1.00;;
11024;SDS011;22890;51.820;8.682;2023-10-08T14:55:22;2.43;;;0.73;;
11024;SDS011;22890;51.820;8.682;2023-10-08T14:57:49;4.40;;;0.80;;
11024;SDS011;22890;51.820;8.682;2023-10-08T15:00:20;4.40;;;1.03;;
11024;SDS011;22890;51.820;8.682;2023-10-08T15:02:54;3.73;;;1.47;;
11024;SDS011;22890;51.820;8.682;2023-10-08T15:05:21;1.90;;;1.07;;
11024;SDS011;22890;51.820;8.682;2023-10-08T15:07:52;1.90;;;0.80;;
11024;SDS011;22890;51.820;8.682;2023-10-08T15:10:19;4.17;;;0.70;;
11024;SDS011;22890;51.820;8.682;2023-10-08T15:12:48;2.33;;;0.90;;
11024;SDS011;22890;51.820;8.682;2023-10-08T15:15:18;6.50;;;1.00;;
11024;SDS011;22890;51.820;8.682;2023-10-08T15:17:45;2.93;;;0.97;;
11024;SDS011;22890;51.820;8.682;2023-10-08T15:20:14;4.57;;;1.10;;
11024;SDS011;22890;51.820;8.682;2023-10-08T15:22:43;1.13;;;0.80;;
11024;SDS011;22890;51.820;8.682;2023-10-08T15:25:11;2.37;;;1.07;;
11024;SDS011;22890;51.820;8.682;2023-10-08T15:27:38;4.37;;;1.00;;
11024;SDS011;22890;51.820;8.682;2023-10-08T15:30:13;3.30;;;1.30;;
11024;SDS011;22890;51.820;8.682;2023-10-08T15:32:46;2.60;;;0.87;;
11024;SDS011;22890;51.820;8.682;2023-10-08T15:35:17;3.80;;;1.07;;
11024;SDS011;22890;51.820;8.682;2023-10-08T15:37:50;3.33;;;0.80;;